Time;durP1;ratioP1;P1;durP2;ratioP2;P2;SDS_P1;SDS_P2;PMS_P1;PMS_P2;Temp;Humidity;BMP_temperature;BMP_pressure;BME280_temperature;BME280_humidity;BME280_pressure;Samples;Min_cycle;Max_cycle;Signal;HPM_P1;HPM_P2
2022/02/26 00:01:35;;;;;;;9.27;3.07;;;4.40;99.90;;;5.03;100.00;-19898.13;5092959;28;20222;-63
2022/02/26 00:04:03;;;;;;;8.10;2.77;;;4.30;99.90;;;5.03;100.00;-19897.94;5092825;28;20313;-61
2022/02/26 00:06:31;;;;;;;13.60;2.97;;;4.20;99.90;;;5.03;100.00;-19897.94;5092571;28;20600;-62
2022/02/26 00:09:00;;;;;;;11.47;3.13;;;4.20;99.90;;;4.72;100.00;-19887.50;5092708;28;20617;-61
2022/02/26 00:11:28;;;;;;;10.63;2.80;;;4.10;99.90;;;4.77;100.00;-19889.41;5092610;28;20204;-59
2022/02/26 00:13:56;;;;;;;11.60;2.90;;;4.10;99.90;;;4.75;100.00;-19888.72;5093059;28;20292;-61
2022/02/26 00:16:25;;;;;;;9.70;2.87;;;4.00;99.90;;;4.76;100.00;-19888.88;5092441;28;20303;-61
2022/02/26 00:18:53;;;;;;;10.50;2.37;;;4.00;99.90;;;4.55;100.00;-19881.72;5092312;28;20280;-61
2022/02/26 00:21:21;;;;;;;9.73;2.77;;;3.90;99.90;;;4.66;100.00;-19885.47;5092555;28;20313;-61
2022/02/26 00:23:49;;;;;;;8.50;2.30;;;3.90;99.90;;;4.68;100.00;-19886.31;5092486;28;20324;-61
2022/02/26 00:26:20;;;;;;;10.40;3.50;;;3.90;99.90;;;4.76;100.00;-19888.88;5091623;28;20702;-61
2022/02/26 00:28:49;;;;;;;12.20;2.57;;;3.90;99.90;;;4.75;100.00;-19888.53;5092337;28;20218;-62
2022/02/26 00:31:17;;;;;;;12.83;2.57;;;3.90;99.90;;;5.04;100.00;-19898.47;5092183;28;20312;-62
2022/02/26 00:33:47;;;;;;;10.87;2.87;;;4.00;99.90;;;4.93;100.00;-19894.69;5091862;28;20884;-60
2022/02/26 00:36:15;;;;;;;9.93;2.80;;;4.10;99.90;;;5.14;100.00;-19901.88;5092103;28;20654;-61
2022/02/26 00:38:45;;;;;;;8.40;2.60;;;4.10;99.90;;;4.99;100.00;-19896.91;5091784;28;20226;-61
2022/02/26 00:41:13;;;;;;;10.27;2.23;;;4.10;99.90;;;5.05;100.00;-19898.81;5091890;28;20288;-61
2022/02/26 00:43:41;;;;;;;11.30;2.70;;;4.10;99.90;;;5.03;100.00;-19898.13;5092066;28;20297;-63
2022/02/26 00:46:09;;;;;;;8.13;2.47;;;4.20;99.90;;;4.93;100.00;-19894.88;5091629;28;20254;-60
2022/02/26 00:51:26;;;;;;;6.20;2.13;;;4.10;99.90;;;4.81;100.00;-19890.78;5091763;28;20314;-60
2022/02/26 00:53:54;;;;;;;10.83;3.30;;;4.00;99.90;;;4.66;100.00;-19885.63;5091998;28;20230;-60
2022/02/26 00:56:22;;;;;;;9.17;2.57;;;3.90;99.90;;;4.79;100.00;-19889.91;5090495;28;20221;-59
2022/02/26 00:58:52;;;;;;;7.33;2.10;;;3.90;99.90;;;4.58;100.00;-19882.91;5091777;28;20680;-62
2022/02/26 01:01:19;;;;;;;7.37;2.70;;;3.80;99.90;;;4.56;100.00;-19882.06;5091772;28;20232;-61
2022/02/26 01:03:48;;;;;;;7.83;2.80;;;3.80;99.90;;;4.67;100.00;-19885.81;5091505;28;20315;-61
2022/02/26 01:06:16;;;;;;;7.43;2.40;;;3.80;99.90;;;4.71;100.00;-19887.34;5091446;28;20228;-61
2022/02/26 01:08:45;;;;;;;7.33;2.20;;;3.80;99.90;;;4.86;100.00;-19892.47;5091295;28;20779;-61
2022/02/26 01:11:13;;;;;;;9.83;2.53;;;3.90;99.90;;;4.76;100.00;-19888.88;5091266;28;20211;-61
2022/02/26 01:13:41;;;;;;;7.23;2.57;;;3.90;99.90;;;4.80;100.00;-19890.25;5091823;28;20431;-60
2022/02/26 01:16:09;;;;;;;10.07;3.10;;;3.90;99.90;;;4.85;100.00;-19891.97;5091447;28;20316;-61
2022/02/26 01:18:38;;;;;;;10.17;2.50;;;3.90;99.90;;;4.83;100.00;-19891.28;5091161;28;20230;-60
2022/02/26 01:21:06;;;;;;;7.87;3.13;;;4.00;99.90;;;4.84;100.00;-19891.78;5091470;28;20325;-61
2022/02/26 01:23:34;;;;;;;7.07;2.23;;;4.00;99.90;;;4.86;100.00;-19892.47;5091351;28;20570;-60
2022/02/26 01:26:03;;;;;;;8.57;2.37;;;4.00;99.90;;;4.87;100.00;-19892.81;5091320;28;20231;-61
2022/02/26 01:28:33;;;;;;;7.83;2.83;;;4.00;99.90;;;4.81;100.00;-19890.78;5090945;28;20289;-59
2022/02/26 01:31:01;;;;;;;10.70;2.60;;;4.00;99.90;;;5.12;100.00;-19901.19;5091134;28;20898;-61
2022/02/26 01:33:29;;;;;;;8.63;2.30;;;4.00;99.90;;;5.13;100.00;-19901.38;5090962;28;20690;-61
2022/02/26 01:35:57;;;;;;;10.77;2.43;;;4.10;99.90;;;5.02;100.00;-19897.78;5090839;28;20716;-61
2022/02/26 01:38:25;;;;;;;11.93;2.70;;;4.10;99.90;;;5.03;100.00;-19897.94;5090769;28;20223;-61
2022/02/26 01:40:53;;;;;;;7.30;2.20;;;4.00;99.90;;;4.90;100.00;-19893.69;5091143;28;20203;-61
2022/02/26 01:43:23;;;;;;;7.87;2.53;;;4.10;99.90;;;4.80;100.00;-19890.25;5090567;28;20411;-61
2022/02/26 01:45:52;;;;;;;8.27;2.43;;;4.00;99.90;;;4.88;100.00;-19893.16;5090873;28;20600;-61
2022/02/26 01:48:21;;;;;;;11.50;3.03;;;4.00;99.90;;;4.88;100.00;-19893.00;5090670;28;20221;-61
2022/02/26 01:50:49;;;;;;;14.40;2.47;;;4.00;99.90;;;4.96;100.00;-19895.91;5090989;28;20217;-61
2022/02/26 01:53:17;;;;;;;11.70;2.23;;;4.10;99.90;;;4.96;100.00;-19895.72;5090776;28;20637;-60
2022/02/26 01:55:45;;;;;;;7.20;2.50;;;4.00;99.90;;;5.10;100.00;-19900.34;5091174;28;20209;-61
2022/02/26 01:58:13;;;;;;;9.53;2.47;;;4.00;99.90;;;4.87;100.00;-19892.66;5090479;28;20317;-62
2022/02/26 02:00:43;;;;;;;11.87;2.83;;;4.10;99.90;;;4.89;100.00;-19893.50;5090676;28;20253;-61
2022/02/26 02:03:11;;;;;;;6.97;2.07;;;4.00;99.90;;;4.84;100.00;-19891.63;5090795;28;20272;-60
2022/02/26 02:05:40;;;;;;;5.50;2.20;;;4.00;99.90;;;4.80;100.00;-19890.25;5090428;28;20718;-61
2022/02/26 02:08:11;;;;;;;13.87;2.30;;;4.00;99.90;;;4.57;100.00;-19882.56;5093367;28;20194;-61
2022/02/26 02:10:41;;;;;;;11.43;2.67;;;3.90;99.90;;;4.49;100.00;-19879.81;5094938;28;20212;-62
2022/02/26 02:13:11;;;;;;;6.13;2.00;;;3.80;99.90;;;4.56;100.00;-19882.22;5094707;28;20329;-61
2022/02/26 02:15:42;;;;;;;7.07;2.40;;;3.70;99.90;;;4.57;100.00;-19882.56;5094646;28;20246;-61
2022/02/26 02:18:15;;;;;;;8.50;2.67;;;3.70;99.90;;;4.55;100.00;-19881.88;5094880;28;20231;-60
2022/02/26 02:20:45;;;;;;;10.20;2.60;;;3.80;99.90;;;4.56;100.00;-19882.22;5094527;28;20223;-60
2022/02/26 02:23:16;;;;;;;8.27;3.20;;;3.80;99.90;;;4.49;100.00;-19879.66;5094658;28;20185;-59
2022/02/26 02:25:45;;;;;;;6.03;2.90;;;3.70;99.90;;;4.64;100.00;-19884.78;5094705;28;20571;-60
2022/02/26 02:28:15;;;;;;;7.73;2.40;;;3.70;99.90;;;4.66;100.00;-19885.47;5094424;28;20223;-60
2022/02/26 02:30:43;;;;;;;11.00;2.73;;;3.70;99.90;;;4.68;100.00;-19886.16;5094534;28;20712;-60
2022/02/26 02:33:11;;;;;;;11.30;2.73;;;3.80;99.90;;;4.68;100.00;-19886.31;5094589;28;20228;-60
2022/02/26 02:35:43;;;;;;;9.90;2.60;;;3.80;99.90;;;4.78;100.00;-19889.75;5094388;28;20229;-60
2022/02/26 02:38:14;;;;;;;8.43;2.23;;;3.80;99.90;;;4.78;100.00;-19889.56;5093980;28;20667;-61
2022/02/26 02:40:47;;;;;;;11.73;2.63;;;3.80;99.90;;;4.70;100.00;-19887.00;5094565;28;20645;-61
2022/02/26 02:43:16;;;;;;;8.33;2.30;;;3.90;99.90;;;4.85;100.00;-19892.13;5094438;28;20270;-61
2022/02/26 02:45:44;;;;;;;7.37;2.37;;;3.90;99.90;;;4.73;100.00;-19887.88;5094006;28;20245;-61
2022/02/26 02:48:15;;;;;;;8.13;2.90;;;3.90;99.90;;;4.74;100.00;-19888.19;5094295;28;20227;-61
2022/02/26 02:50:43;;;;;;;10.50;2.93;;;3.80;99.90;;;4.62;100.00;-19884.28;5083712;28;20306;-61
2022/02/26 02:53:11;;;;;;;6.90;2.10;;;3.90;99.90;;;4.72;100.00;-19887.69;5093121;28;20228;-62
2022/02/26 02:55:39;;;;;;;8.00;2.50;;;3.80;99.90;;;4.84;100.00;-19891.78;5094309;28;20201;-60
2022/02/26 02:58:09;;;;;;;8.87;2.40;;;3.90;99.90;;;5.01;100.00;-19897.44;5093852;28;20323;-59
2022/02/26 03:00:37;;;;;;;11.07;2.33;;;3.90;99.90;;;4.86;100.00;-19892.47;5093926;28;20320;-61
2022/02/26 03:03:07;;;;;;;11.97;2.60;;;3.90;99.90;;;4.84;100.00;-19891.63;5093823;28;20336;-61
2022/02/26 03:05:36;;;;;;;3.87;1.77;;;3.90;99.90;;;4.83;100.00;-19891.28;5093804;28;20249;-60
2022/02/26 03:08:04;;;;;;;10.13;2.83;;;3.90;99.90;;;4.75;100.00;-19888.72;5094059;28;20225;-61
2022/02/26 03:10:34;;;;;;;9.60;2.40;;;3.90;99.90;;;4.81;100.00;-19890.59;5094004;28;20217;-62
2022/02/26 03:13:02;;;;;;;8.87;2.40;;;3.90;99.90;;;4.80;100.00;-19890.25;5093478;28;20316;-60
2022/02/26 03:15:32;;;;;;;8.60;2.10;;;3.90;99.90;;;4.84;100.00;-19891.63;5093479;28;20315;-61
2022/02/26 03:18:00;;;;;;;8.87;2.40;;;3.90;99.90;;;4.75;100.00;-19888.53;5093660;28;20233;-61
2022/02/26 03:20:30;;;;;;;11.03;2.40;;;3.90;99.90;;;4.82;100.00;-19890.94;5092319;28;20289;-61
2022/02/26 03:22:59;;;;;;;7.33;2.23;;;3.90;99.90;;;4.86;100.00;-19892.31;5093859;28;20205;-61
2022/02/26 03:25:27;;;;;;;10.73;2.83;;;3.90;99.90;;;4.75;100.00;-19888.53;5093098;28;20645;-60
2022/02/26 03:27:55;;;;;;;8.13;2.37;;;3.90;99.90;;;4.75;100.00;-19888.72;5093107;28;20235;-60
2022/02/26 03:30:23;;;;;;;11.07;2.67;;;3.90;99.90;;;4.78;100.00;-19889.75;5093212;28;20230;-61
2022/02/26 03:32:52;;;;;;;9.30;2.73;;;3.90;99.90;;;4.81;100.00;-19890.59;5093514;28;20249;-61
2022/02/26 03:35:20;;;;;;;9.83;2.37;;;3.90;99.90;;;4.93;100.00;-19894.88;5092660;28;20214;-61
2022/02/26 03:37:48;;;;;;;11.37;2.63;;;4.00;99.90;;;4.97;100.00;-19896.06;5093542;28;20229;-61
2022/02/26 03:40:17;;;;;;;11.60;2.30;;;4.00;99.90;;;4.94;100.00;-19895.03;5092728;28;20724;-62
2022/02/26 03:42:46;;;;;;;9.80;2.77;;;4.00;99.90;;;5.08;100.00;-19899.66;5092908;28;20228;-59
2022/02/26 03:45:14;;;;;;;9.27;2.50;;;4.00;99.90;;;4.99;100.00;-19896.91;5092659;28;20327;-61
2022/02/26 03:47:42;;;;;;;6.30;2.87;;;4.00;99.90;;;4.97;100.00;-19896.06;5092758;28;20843;-62
2022/02/26 03:50:12;;;;;;;8.33;2.80;;;4.00;99.90;;;4.78;100.00;-19889.75;5092843;28;20244;-62
2022/02/26 03:52:41;;;;;;;11.70;2.73;;;4.00;99.90;;;4.87;100.00;-19892.66;5093218;28;20233;-59
2022/02/26 03:55:11;;;;;;;13.93;2.90;;;4.00;99.90;;;4.87;100.00;-19892.81;5092926;28;20234;-60
2022/02/26 03:57:46;;;;;;;10.70;2.80;;;4.00;99.90;;;4.97;100.00;-19896.06;5092797;28;20226;-60
2022/02/26 04:00:15;;;;;;;8.53;2.30;;;4.10;99.90;;;4.97;100.00;-19896.06;5092537;28;20693;-60
2022/02/26 04:02:44;;;;;;;10.43;2.93;;;4.10;99.90;;;4.87;100.00;-19892.66;5092654;28;20228;-60
2022/02/26 04:05:13;;;;;;;10.53;2.80;;;4.00;99.90;;;4.84;100.00;-19891.78;5092722;28;20205;-59
2022/02/26 04:07:44;;;;;;;10.60;2.63;;;4.00;99.90;;;4.83;100.00;-19891.44;5092968;28;20207;-61
2022/02/26 04:10:13;;;;;;;7.47;2.40;;;4.00;99.90;;;4.70;100.00;-19887.00;5092446;28;20226;-60
2022/02/26 04:12:41;;;;;;;9.97;2.57;;;3.90;99.90;;;4.64;100.00;-19884.97;5092298;28;20247;-59
2022/02/26 04:15:10;;;;;;;11.80;2.43;;;3.90;99.90;;;4.57;100.00;-19882.56;5092487;28;20307;-60
2022/02/26 04:17:38;;;;;;;11.13;2.50;;;3.90;99.90;;;4.64;100.00;-19884.97;5092307;28;20248;-61
2022/02/26 04:20:09;;;;;;;8.50;2.40;;;3.90;99.90;;;4.58;100.00;-19882.75;5092595;28;20729;-62
2022/02/26 04:22:40;;;;;;;9.17;2.97;;;3.80;99.90;;;4.45;100.00;-19878.28;5091890;28;20239;-61
2022/02/26 04:25:09;;;;;;;9.60;2.10;;;3.80;99.90;;;4.48;100.00;-19879.31;5092151;28;20342;-61
2022/02/26 04:27:38;;;;;;;11.93;2.67;;;3.70;99.90;;;4.51;100.00;-19880.34;5091531;28;20260;-60
2022/02/26 04:30:08;;;;;;;11.70;2.53;;;3.70;99.90;;;4.51;100.00;-19880.34;5091662;28;20224;-61
2022/02/26 04:32:41;;;;;;;9.63;2.63;;;3.70;99.90;;;4.65;100.00;-19885.13;5092171;28;20612;-59
2022/02/26 04:35:11;;;;;;;10.40;2.43;;;3.70;99.90;;;4.46;100.00;-19878.81;5091983;28;20552;-59
2022/02/26 04:37:41;;;;;;;14.13;3.33;;;3.60;99.90;;;4.48;100.00;-19879.31;5092158;28;20640;-59
2022/02/26 04:40:11;;;;;;;10.53;3.03;;;3.60;99.90;;;4.36;100.00;-19875.38;5092147;28;20319;-60
2022/02/26 04:42:40;;;;;;;12.93;3.10;;;3.60;99.90;;;4.46;100.00;-19878.81;5091573;28;20310;-61
2022/02/26 04:45:11;;;;;;;14.73;2.83;;;3.60;99.90;;;4.34;100.00;-19874.69;5091842;28;20225;-60
2022/02/26 04:47:42;;;;;;;11.27;3.07;;;3.60;99.90;;;4.38;100.00;-19875.91;5091984;28;20228;-59
2022/02/26 04:50:14;;;;;;;9.37;2.40;;;3.60;99.90;;;4.27;100.00;-19872.31;5091824;28;20177;-60
2022/02/26 04:52:45;;;;;;;10.00;3.83;;;3.50;99.90;;;4.34;100.00;-19874.53;5092244;28;20282;-61
2022/02/26 04:55:14;;;;;;;8.57;2.83;;;3.50;99.90;;;4.52;100.00;-19880.69;5091607;28;20226;-60
2022/02/26 04:57:44;;;;;;;13.50;3.60;;;3.50;99.90;;;4.35;100.00;-19874.88;5091405;28;20299;-59
2022/02/26 05:00:13;;;;;;;13.70;3.73;;;3.50;99.90;;;4.49;100.00;-19879.81;5091645;28;20228;-60
2022/02/26 05:02:41;;;;;;;8.07;2.63;;;3.50;99.90;;;4.54;100.00;-19881.53;5091321;28;20700;-60
2022/02/26 05:05:10;;;;;;;12.93;2.97;;;3.60;99.90;;;4.39;100.00;-19876.41;5091497;28;20198;-60
2022/02/26 05:07:38;;;;;;;12.37;3.37;;;3.60;99.90;;;4.48;100.00;-19879.31;5091669;28;20222;-62
2022/02/26 05:10:09;;;;;;;12.73;2.90;;;3.60;99.90;;;4.42;100.00;-19877.25;5091409;28;20262;-59
2022/02/26 05:12:37;;;;;;;10.57;2.70;;;3.60;99.90;;;4.50;100.00;-19880.00;5091079;28;20226;-59
2022/02/26 05:15:06;;;;;;;8.70;2.50;;;3.60;99.90;;;4.43;100.00;-19877.59;5090983;28;20228;-61
2022/02/26 05:17:34;;;;;;;11.10;3.17;;;3.60;99.90;;;4.37;100.00;-19875.56;5090885;28;20617;-60
2022/02/26 05:20:06;;;;;;;9.67;2.67;;;3.60;99.90;;;4.49;100.00;-19879.81;5091765;28;20211;-60
2022/02/26 05:22:36;;;;;;;13.27;3.10;;;3.60;99.90;;;4.68;100.00;-19886.31;5091172;28;20217;-61
2022/02/26 05:25:10;;;;;;;13.70;3.43;;;3.70;99.90;;;4.71;100.00;-19887.19;5090928;28;20253;-60
2022/02/26 05:27:40;;;;;;;7.67;2.70;;;3.70;99.90;;;4.84;100.00;-19891.78;5090428;28;20261;-61
2022/02/26 05:30:11;;;;;;;17.03;3.90;;;3.80;99.90;;;4.99;100.00;-19896.91;5091115;28;20258;-59
2022/02/26 05:32:40;;;;;;;10.13;3.20;;;3.90;99.90;;;4.95;100.00;-19895.56;5090945;28;20283;-59
2022/02/26 05:35:10;;;;;;;13.73;3.63;;;3.90;99.90;;;4.83;100.00;-19891.28;5090802;28;20340;-61
2022/02/26 05:37:38;;;;;;;12.83;3.30;;;4.00;99.90;;;4.77;100.00;-19889.41;5091349;28;20238;-60
2022/02/26 05:40:09;;;;;;;15.47;3.37;;;4.00;99.90;;;4.91;100.00;-19894.19;5090817;28;20236;-60
2022/02/26 05:42:37;;;;;;;12.90;2.70;;;4.00;99.90;;;5.05;100.00;-19898.81;5089659;28;20244;-62
2022/02/26 05:45:06;;;;;;;9.43;2.97;;;4.10;99.90;;;5.03;100.00;-19898.13;5090503;28;20961;-60
2022/02/26 05:47:35;;;;;;;11.50;2.93;;;4.10;99.90;;;5.16;100.00;-19902.56;5090532;28;20257;-60
2022/02/26 05:50:03;;;;;;;11.10;2.83;;;4.20;99.90;;;5.07;100.00;-19899.50;5091356;28;20297;-62
2022/02/26 05:52:31;;;;;;;10.30;3.10;;;4.20;99.90;;;5.10;100.00;-19900.34;5090533;28;20778;-61
2022/02/26 05:54:59;;;;;;;11.70;3.00;;;4.20;99.90;;;5.04;100.00;-19898.28;5090676;28;20348;-62
2022/02/26 05:57:29;;;;;;;11.57;2.70;;;4.20;99.90;;;4.93;100.00;-19894.69;5090386;28;20264;-60
2022/02/26 05:59:57;;;;;;;8.43;3.03;;;4.10;99.90;;;4.94;100.00;-19895.03;5090811;28;20240;-60
2022/02/26 06:02:25;;;;;;;12.70;2.57;;;4.10;99.90;;;5.10;100.00;-19900.50;5087755;28;20300;-60
2022/02/26 06:04:53;;;;;;;14.17;3.57;;;4.20;99.90;;;5.01;100.00;-19897.44;5090928;28;20214;-60
2022/02/26 06:07:21;;;;;;;13.20;3.30;;;4.20;99.90;;;4.97;100.00;-19896.22;5090607;28;20229;-61
2022/02/26 06:09:49;;;;;;;11.40;2.90;;;4.20;99.90;;;5.09;100.00;-19900.16;5090598;28;20612;-60
2022/02/26 06:12:19;;;;;;;11.27;3.27;;;4.20;99.90;;;5.27;100.00;-19906.16;5090474;28;20717;-61
2022/02/26 06:14:48;;;;;;;17.30;3.27;;;4.30;99.90;;;5.36;100.00;-19909.22;5090726;28;20217;-60
2022/02/26 06:17:16;;;;;;;13.63;3.70;;;4.30;99.90;;;5.30;100.00;-19907.19;5090195;28;20214;-61
2022/02/26 06:19:45;;;;;;;13.17;3.80;;;4.30;99.90;;;5.31;100.00;-19907.69;5091100;28;20253;-61
2022/02/26 06:22:13;;;;;;;10.73;3.00;;;4.30;99.90;;;5.23;100.00;-19904.78;5090189;28;20234;-60
2022/02/26 06:24:41;;;;;;;11.70;3.43;;;4.40;99.90;;;5.47;100.00;-19913.16;5090457;28;20233;-62
2022/02/26 06:27:09;;;;;;;12.93;3.10;;;4.40;99.90;;;5.24;100.00;-19905.31;5090279;28;20667;-61
2022/02/26 06:29:37;;;;;;;14.77;3.70;;;4.40;99.90;;;5.19;100.00;-19903.59;5090496;28;20310;-61
2022/02/26 06:32:08;;;;;;;12.17;3.57;;;4.40;99.90;;;5.25;100.00;-19905.63;5090938;28;20205;-61
2022/02/26 06:34:36;;;;;;;8.37;3.27;;;4.40;99.90;;;5.37;100.00;-19909.56;5090375;28;20233;-59
2022/02/26 06:37:05;;;;;;;14.77;3.67;;;4.40;99.90;;;5.28;100.00;-19906.66;5090110;28;20230;-60
2022/02/26 06:39:33;;;;;;;12.23;3.70;;;4.30;99.90;;;5.37;100.00;-19909.56;5090443;28;20296;-60
2022/02/26 06:42:01;;;;;;;17.93;3.60;;;4.40;99.90;;;5.29;100.00;-19906.84;5090464;28;20265;-60
2022/02/26 06:44:29;;;;;;;18.63;3.50;;;4.40;99.90;;;5.32;100.00;-19908.03;5090385;28;20226;-60
2022/02/26 06:46:58;;;;;;;15.23;4.27;;;4.40;99.90;;;5.36;100.00;-19909.22;5090816;28;20280;-61
2022/02/26 06:49:27;;;;;;;11.60;3.60;;;4.40;99.90;;;5.27;100.00;-19906.31;5090670;28;20317;-60
2022/02/26 06:51:55;;;;;;;10.03;3.20;;;4.40;99.90;;;5.21;100.00;-19904.28;5090443;28;20254;-60
2022/02/26 06:54:23;;;;;;;12.37;3.70;;;4.40;99.90;;;5.40;100.00;-19910.75;5092879;28;20903;-60
2022/02/26 06:56:52;;;;;;;15.27;4.70;;;4.40;99.90;;;5.45;100.00;-19912.31;5094170;28;20254;-61
2022/02/26 06:59:21;;;;;;;11.10;4.20;;;4.40;99.90;;;5.42;100.00;-19911.28;5093417;28;20624;-61
2022/02/26 07:01:50;;;;;;;9.73;3.33;;;4.50;99.90;;;5.29;100.00;-19907.00;5093949;28;20749;-62
2022/02/26 07:04:18;;;;;;;14.40;3.53;;;4.40;99.90;;;5.30;100.00;-19907.34;5093742;28;20229;-60
2022/02/26 07:06:48;;;;;;;12.70;3.70;;;4.50;99.90;;;5.31;100.00;-19907.69;5093729;28;20726;-59
2022/02/26 07:09:19;;;;;;;14.50;3.37;;;4.50;99.90;;;5.37;100.00;-19909.75;5093784;28;20235;-62
2022/02/26 07:11:48;;;;;;;17.40;4.23;;;4.50;99.90;;;5.48;100.00;-19913.50;5093972;28;20230;-60
2022/02/26 07:14:17;;;;;;;14.10;3.70;;;4.50;99.90;;;5.38;100.00;-19910.06;5093943;28;20233;-60
2022/02/26 07:16:45;;;;;;;15.93;4.00;;;4.50;99.90;;;5.54;100.00;-19915.38;5093910;28;20296;-60
2022/02/26 07:19:13;;;;;;;19.43;3.77;;;4.50;99.90;;;5.54;100.00;-19915.56;5093273;28;20288;-60
2022/02/26 07:21:41;;;;;;;10.70;3.50;;;4.60;99.90;;;5.62;100.00;-19918.28;5093722;28;20233;-61
2022/02/26 07:24:11;;;;;;;13.93;3.87;;;4.60;99.90;;;5.68;100.00;-19920.34;5093617;28;20309;-60
2022/02/26 07:26:40;;;;;;;11.93;3.73;;;4.70;99.90;;;5.58;100.00;-19916.91;5093483;28;20228;-62
2022/02/26 07:29:08;;;;;;;13.37;3.73;;;4.70;99.90;;;5.78;100.00;-19923.59;5093841;28;20323;-60
2022/02/26 07:31:36;;;;;;;14.47;3.83;;;4.70;99.90;;;5.66;100.00;-19919.47;5093538;28;20700;-61
2022/02/26 07:34:04;;;;;;;8.90;3.10;;;4.70;99.90;;;5.81;100.00;-19924.59;5092968;28;20322;-61
2022/02/26 07:36:32;;;;;;;14.77;3.70;;;4.80;99.90;;;5.79;100.00;-19924.09;5092992;28;20600;-60
2022/02/26 07:39:01;;;;;;;13.97;3.97;;;4.80;99.90;;;5.77;100.00;-19923.25;5092994;28;20226;-60
2022/02/26 07:41:30;;;;;;;12.00;3.57;;;4.80;99.90;;;5.95;100.00;-19929.41;5092989;28;20746;-61
2022/02/26 07:43:58;;;;;;;11.70;3.67;;;4.90;99.90;;;5.98;100.00;-19930.44;5093227;28;20306;-61
2022/02/26 07:46:27;;;;;;;13.23;3.83;;;4.90;99.90;;;5.97;100.00;-19930.09;5092657;28;20231;-60
2022/02/26 07:48:55;;;;;;;11.53;3.50;;;5.00;99.90;;;6.03;100.00;-19932.31;5092941;28;20294;-61
2022/02/26 07:51:23;;;;;;;13.10;3.90;;;5.00;99.90;;;6.12;100.00;-19935.38;5092840;28;20307;-60
2022/02/26 07:53:51;;;;;;;15.63;3.80;;;5.10;99.90;;;6.27;100.00;-19940.34;5093125;28;20306;-60
2022/02/26 07:56:19;;;;;;;10.67;3.63;;;5.10;99.90;;;6.39;100.00;-19944.28;5092799;28;20298;-60
2022/02/26 07:58:52;;;;;;;15.90;4.07;;;5.20;99.90;;;6.34;100.00;-19942.72;5093439;28;20185;-60
2022/02/26 08:01:21;;;;;;;11.47;3.40;;;5.20;99.90;;;6.30;100.00;-19941.38;5092713;28;20226;-61
2022/02/26 08:03:52;;;;;;;12.83;3.90;;;5.20;99.90;;;6.38;100.00;-19944.09;5093018;28;20276;-61
2022/02/26 08:06:20;;;;;;;15.50;4.43;;;5.30;99.90;;;6.40;100.00;-19944.59;5091967;28;20224;-61
2022/02/26 08:08:48;;;;;;;17.10;3.80;;;5.30;99.90;;;6.45;100.00;-19946.31;5092603;28;20254;-60
2022/02/26 08:11:16;;;;;;;14.03;3.30;;;5.30;99.90;;;6.48;100.00;-19947.50;5092523;28;20208;-61
2022/02/26 08:13:44;;;;;;;16.63;4.10;;;5.40;99.90;;;6.58;100.00;-19950.75;5093135;28;20241;-60
2022/02/26 08:16:14;;;;;;;10.40;3.70;;;5.40;99.90;;;6.82;100.00;-19959.13;5092084;28;20310;-60
2022/02/26 08:18:42;;;;;;;13.20;3.30;;;5.50;99.90;;;6.81;100.00;-19958.63;5092337;28;20602;-62
2022/02/26 08:21:09;;;;;;;12.77;3.40;;;5.60;99.90;;;6.96;100.00;-19963.91;5091914;28;20220;-62
2022/02/26 08:23:37;;;;;;;12.97;3.83;;;5.70;99.90;;;7.09;100.00;-19968.38;5092415;28;20303;-61
2022/02/26 08:26:06;;;;;;;12.40;3.63;;;5.80;99.90;;;7.03;100.00;-19966.31;5092726;28;20192;-61
2022/02/26 08:28:34;;;;;;;10.37;3.40;;;5.80;99.90;;;7.27;100.00;-19974.50;5092533;28;20295;-60
2022/02/26 08:31:02;;;;;;;10.83;3.43;;;5.90;99.90;;;7.35;100.00;-19977.06;5091335;28;20314;-60
2022/02/26 08:33:31;;;;;;;13.60;3.43;;;6.00;99.90;;;7.33;100.00;-19976.56;5092444;28;20235;-60
2022/02/26 08:36:00;;;;;;;10.93;3.83;;;5.90;99.90;;;7.62;100.00;-19986.31;5092232;28;20224;-61
2022/02/26 08:38:28;;;;;;;11.10;3.40;;;6.10;99.90;;;7.66;100.00;-19987.50;5092094;28;20208;-60
2022/02/26 08:40:56;;;;;;;14.93;3.80;;;6.20;99.90;;;7.52;100.00;-19982.72;5092270;28;20200;-61
2022/02/26 08:43:25;;;;;;;12.13;3.57;;;6.20;99.90;;;7.47;100.00;-19981.00;5091776;28;20278;-61
2022/02/26 08:45:53;;;;;;;14.23;3.60;;;6.20;99.90;;;7.48;100.00;-19981.53;5091321;28;20219;-61
2022/02/26 08:48:21;;;;;;;10.17;3.43;;;6.20;99.90;;;7.50;100.00;-19982.19;5091894;28;20230;-61
2022/02/26 08:50:50;;;;;;;12.00;3.23;;;6.30;99.90;;;7.52;100.00;-19982.88;5091591;28;20228;-60
2022/02/26 08:53:19;;;;;;;13.60;4.03;;;6.30;99.90;;;7.44;100.00;-19980.31;5091600;28;20239;-60
2022/02/26 08:55:47;;;;;;;15.57;3.70;;;6.20;99.90;;;7.42;100.00;-19979.47;5092253;28;20592;-61
2022/02/26 08:58:15;;;;;;;16.87;4.77;;;6.10;99.90;;;7.32;100.00;-19976.22;5091453;28;20600;-62
2022/02/26 09:00:43;;;;;;;11.27;3.60;;;6.10;99.90;;;7.29;100.00;-19975.19;5091200;28;20226;-60
2022/02/26 09:03:11;;;;;;;13.13;3.60;;;6.10;99.90;;;7.51;100.00;-19982.53;5091683;28;20333;-61
2022/02/26 09:05:40;;;;;;;9.90;3.50;;;6.10;99.90;;;7.36;100.00;-19977.59;5091047;28;20519;-61
2022/02/26 09:08:11;;;;;;;11.70;3.50;;;6.10;99.90;;;7.36;100.00;-19977.41;5091524;28;20605;-60
2022/02/26 09:10:39;;;;;;;13.27;3.73;;;6.10;99.90;;;7.52;100.00;-19982.88;5091272;28;20254;-61
2022/02/26 09:13:10;;;;;;;12.87;3.50;;;6.20;99.90;;;7.70;100.00;-19988.88;5091136;28;20224;-61
2022/02/26 09:15:38;;;;;;;9.77;3.03;;;6.30;99.90;;;7.52;100.00;-19982.88;5090942;28;20642;-61
2022/02/26 09:18:06;;;;;;;12.53;4.10;;;6.30;99.90;;;7.56;100.00;-19984.25;5090451;28;20234;-60
2022/02/26 09:20:34;;;;;;;10.93;3.40;;;6.30;99.90;;;7.51;100.00;-19982.38;5090581;28;20258;-61
2022/02/26 09:23:02;;;;;;;12.07;3.03;;;6.30;99.90;;;7.55;100.00;-19983.91;5090783;28;20231;-61
2022/02/26 09:25:32;;;;;;;11.37;3.87;;;6.30;99.90;;;7.67;100.00;-19987.84;5090682;28;20251;-60
2022/02/26 09:28:00;;;;;;;12.20;3.40;;;6.40;99.90;;;7.84;100.00;-19993.66;5090298;28;20228;-62
2022/02/26 09:30:28;;;;;;;8.93;3.30;;;6.40;99.90;;;7.93;100.00;-19996.72;5090768;28;20314;-61
2022/02/26 09:32:57;;;;;;;9.37;3.27;;;6.50;99.90;;;8.10;100.00;-20002.72;5090854;28;20230;-61
2022/02/26 09:35:25;;;;;;;9.73;3.07;;;6.60;99.90;;;8.38;99.49;-20012.09;5091269;28;20291;-61
2022/02/26 09:37:55;;;;;;;8.47;3.43;;;6.80;99.90;;;8.44;99.70;-20014.16;5091057;28;20204;-60
2022/02/26 09:40:24;;;;;;;12.40;3.47;;;6.90;99.90;;;8.39;98.27;-20012.44;5090606;28;20224;-60
2022/02/26 09:42:55;;;;;;;10.00;3.80;;;7.00;99.90;;;8.27;100.00;-20008.34;5090518;28;20234;-61
2022/02/26 09:45:23;;;;;;;11.40;3.57;;;6.90;99.90;;;8.30;100.00;-20009.38;5090572;28;20224;-60
2022/02/26 09:47:51;;;;;;;12.03;3.43;;;6.90;99.90;;;8.31;98.26;-20009.88;5090439;28;20251;-60
2022/02/26 09:50:20;;;;;;;10.27;3.63;;;7.00;99.90;;;8.08;97.48;-20001.84;5090903;28;20270;-60
2022/02/26 09:52:51;;;;;;;9.73;3.27;;;6.90;99.90;;;8.00;98.89;-19999.13;5091045;28;20244;-61
2022/02/26 09:55:22;;;;;;;9.93;3.30;;;6.80;99.90;;;8.03;97.88;-20000.31;5090524;28;20257;-61
2022/02/26 09:57:50;;;;;;;10.87;3.37;;;6.70;99.90;;;8.39;96.34;-20012.63;5090238;28;20224;-61
2022/02/26 10:00:20;;;;;;;11.77;3.63;;;6.90;99.90;;;8.35;97.11;-20011.25;5090376;28;20222;-61
2022/02/26 10:02:50;;;;;;;9.03;3.40;;;6.90;99.90;;;8.38;97.01;-20012.09;5090485;28;20224;-61
2022/02/26 10:05:19;;;;;;;12.00;4.13;;;7.00;99.90;;;8.09;99.26;-20002.38;5090738;28;20188;-61
2022/02/26 10:07:50;;;;;;;9.90;3.70;;;6.90;99.90;;;7.78;100.00;-19991.78;5090720;28;20671;-61
2022/02/26 10:10:24;;;;;;;13.60;3.63;;;6.70;99.90;;;7.65;100.00;-19987.16;5090485;28;20707;-61
2022/02/26 10:12:55;;;;;;;15.43;4.43;;;6.60;99.90;;;7.79;100.00;-19991.94;5090340;28;20224;-60
2022/02/26 10:15:28;;;;;;;11.97;3.50;;;6.50;99.90;;;7.79;100.00;-19991.94;5090330;28;20249;-60
2022/02/26 10:18:09;;;;;;;9.73;3.90;;;6.60;99.90;;;8.01;100.00;-19999.63;5090414;28;20307;-60
2022/02/26 10:20:45;;;;;;;10.77;3.50;;;6.70;99.90;;;8.14;100.00;-20003.91;5090670;28;20215;-61
2022/02/26 10:23:14;;;;;;;12.13;3.87;;;6.80;99.90;;;8.23;100.00;-20006.97;5089981;28;20230;-60
2022/02/26 10:25:43;;;;;;;10.83;4.03;;;6.90;99.90;;;8.29;100.00;-20009.22;5090648;28;20215;-60